LQTZ/TZL METAR and TAF weather

Enter ICAO airport designator
Station Type Date Time Source
LQTZ METAR 2019/05/20 10:30 UTC NOAA

LQTZ 201030Z 14003KT 090V230 9999 SCT035 21/09 Q1007


Station Type Date Time Source
LQTZ Decoded METAR 2019/05/20 10:30 UTC NOAA

Tuzla, Bosnia and Herzegovina (LQTZ) 44-33N 018-42E
May 20, 2019 - 06:30 AM EDT / 2019.05.20 1030 UTC
Wind: from the SE (140 degrees) at 3 MPH (3 KT) (direction variable):0
Visibility: greater than 7 mile(s):0
Sky conditions: partly cloudy
Temperature: 69 F (21 C)
Dew Point: 48 F (9 C)
Relative Humidity: 46%
Pressure (altimeter): 29.74 in. Hg (1007 hPa)
ob: LQTZ 201030Z 14003KT 090V230 9999 SCT035 21/09 Q1007
cycle: 10

Station Type Date Time Source
LQTZ TAF 2019/05/20 06:06 UTC NOAA

TAF LQTZ 200500Z 2006/2106 15005KT 9999 SCT045 TX20/2013Z TN08/2104Z PROB40
TEMPO 2010/2018 5000 TSRA SCT030CB BKN033

Example: see airport list